首页
METAR-TAF:

METAR-TAF

机场 :

瓦加杜古, 布吉納法索

瓦加杜古國際機場

纬度: 12-21N, 经度: 001-31W, 海拔: 316米

当前天气观测

该预报发布于21分钟前的22:00 UTC
风速12节,风向南转西南
温度 34°C
湿度 39%
气压 1010 hPa
能見度: 8000
少量云层高于2600英尺
少量云层高于4000英尺, 积雨云.

METAR: DFFD 252200Z 21012KT 8000 FEW026 FEW040CB 34/18 Q1010 TEMPO TS

时间: 22:21 (22:21 UTC)

预报

该预报发布于5小时和21分钟前的17:00 UTC
预报有效从25日的 18点(UTC)到 26日的 24点(UTC)
风速10节,风向西南
能见度10公里或以上
少量云层高于2600英尺
短暂存在
从 25日的 18点(UTC)到 25日的 24点(UTC)
风速25节,风向东转东南,有时为40节阵风
能見度: 2500
散云层高于2600英尺
散云层高于4000英尺, 积雨云.
飑, 高吹沙, 雷暴, 雨
短暂存在
从 26日的 16点(UTC)到 26日的 24点(UTC)
少量云层高于2600英尺
少量云层高于4000英尺, 积雨云.
雷暴

TAF: DFFD 251700Z 2518/2624 22010KT 9999 FEW026 TEMPO 2518/2524 12025G40KT 2500 SQ BLSA TSRA SCT026 SCT040CB TEMPO 2616/2624 TS FEW026 FEW040CB

超过4000个机场的气象观测和天气预报(METAR&TAF报告)。

可查询的气象台以黄色和红色小点在地图上表示。

将鼠标移到小点上方,可查看气象台名称。

然后点击查看天气观测和预报。

如需切换地图:点击带黑十字的绿色按钮放大地图;点击带横线的绿色按钮缩小地图;或者点击绿色箭头查看邻近地区的地图。


METAR-TAF: